createdAt,value
2023-05-08T00:02:24.787Z,57.60
2023-05-08T00:04:52.980Z,57.60
2023-05-08T00:07:20.936Z,57.60
2023-05-08T00:09:48.826Z,57.60
2023-05-08T00:12:16.802Z,57.60
2023-05-08T00:14:44.686Z,57.70
2023-05-08T00:17:13.609Z,57.70
2023-05-08T00:19:42.859Z,58.20
2023-05-08T00:22:10.889Z,57.80
2023-05-08T00:24:38.872Z,57.70
2023-05-08T00:27:08.113Z,57.70
2023-05-08T00:29:36.280Z,57.80
2023-05-08T00:32:04.517Z,57.80
2023-05-08T00:34:32.417Z,57.80
2023-05-08T00:37:02.835Z,57.80
2023-05-08T00:39:30.980Z,57.90
2023-05-08T00:41:59.106Z,57.80
2023-05-08T00:44:27.449Z,57.90
2023-05-08T00:46:55.492Z,57.80
2023-05-08T00:49:24.845Z,57.80
2023-05-08T00:51:55.357Z,57.90
2023-05-08T00:54:25.109Z,57.90
2023-05-08T00:56:53.387Z,57.90
2023-05-08T00:59:22.630Z,57.90
2023-05-08T01:01:52.012Z,57.90
2023-05-08T01:04:22.561Z,57.90
2023-05-08T01:06:50.743Z,58.00
2023-05-08T01:09:18.748Z,57.90
2023-05-08T01:11:53.665Z,58.00
2023-05-08T01:14:24.224Z,58.10
2023-05-08T01:17:03.217Z,57.90
2023-05-08T01:19:59.704Z,58.00
2023-05-08T01:22:45.108Z,58.10
2023-05-08T01:25:30.542Z,58.00
2023-05-08T01:28:35.380Z,58.00
2023-05-08T01:31:19.596Z,58.20
2023-05-08T01:33:55.883Z,58.10
2023-05-08T01:36:34.296Z,58.00
2023-05-08T01:39:11.268Z,57.90
2023-05-08T01:41:40.562Z,57.90
2023-05-08T01:44:14.703Z,57.90
2023-05-08T01:46:46.090Z,58.00
2023-05-08T01:49:23.023Z,57.90
2023-05-08T01:51:58.742Z,58.10
2023-05-08T01:54:29.955Z,58.10
2023-05-08T01:57:00.230Z,58.00
2023-05-08T01:59:30.319Z,58.10
2023-05-08T02:02:00.821Z,58.00
2023-05-08T02:04:31.799Z,58.10
2023-05-08T02:07:01.482Z,58.10
2023-05-08T02:09:30.323Z,58.10
2023-05-08T02:11:59.474Z,58.10
2023-05-08T02:14:29.082Z,58.10
2023-05-08T02:16:58.548Z,58.10
2023-05-08T02:19:30.206Z,58.20
2023-05-08T02:22:00.939Z,58.10
2023-05-08T02:24:29.182Z,58.20
2023-05-08T02:26:58.759Z,58.20
2023-05-08T02:29:28.376Z,58.30
2023-05-08T02:31:58.010Z,58.20
2023-05-08T02:34:27.270Z,58.20
2023-05-08T02:36:57.195Z,58.20
2023-05-08T02:39:31.088Z,58.30
2023-05-08T02:42:00.809Z,58.20
2023-05-08T02:44:29.545Z,58.20
2023-05-08T02:46:59.606Z,58.20
2023-05-08T02:49:33.359Z,58.30
2023-05-08T02:52:11.585Z,58.40
2023-05-08T02:54:43.978Z,58.50
2023-05-08T02:57:19.773Z,58.40
2023-05-08T02:59:58.012Z,58.50
2023-05-08T03:02:33.692Z,58.50
2023-05-08T03:05:08.717Z,58.40
2023-05-08T03:07:41.835Z,58.30
2023-05-08T03:10:15.474Z,58.30
2023-05-08T03:12:47.410Z,58.20
2023-05-08T03:15:23.903Z,58.10
2023-05-08T03:17:55.839Z,58.30
2023-05-08T03:20:25.995Z,58.20
2023-05-08T03:22:57.201Z,58.20
2023-05-08T03:25:26.272Z,58.30
2023-05-08T03:27:56.093Z,58.30
2023-05-08T03:30:26.348Z,58.20
2023-05-08T03:33:02.347Z,58.30
2023-05-08T03:35:31.547Z,58.30
2023-05-08T03:38:00.879Z,58.40
2023-05-08T03:40:29.249Z,58.50
2023-05-08T03:42:58.203Z,58.60
2023-05-08T03:45:26.742Z,58.60
2023-05-08T03:47:55.182Z,58.70
2023-05-08T03:50:24.697Z,58.70
2023-05-08T03:52:53.160Z,58.80
2023-05-08T03:55:22.544Z,58.90
2023-05-08T03:57:58.721Z,58.80
2023-05-08T04:00:42.848Z,58.90
2023-05-08T04:03:22.890Z,58.90
2023-05-08T04:06:00.779Z,58.90
2023-05-08T04:08:30.649Z,58.80
2023-05-08T04:11:10.941Z,58.80
2023-05-08T04:13:46.781Z,58.90
2023-05-08T04:16:22.056Z,58.90
2023-05-08T04:18:51.558Z,58.80
2023-05-08T04:21:23.362Z,58.70
2023-05-08T04:23:53.351Z,58.70
2023-05-08T04:26:22.884Z,58.80
2023-05-08T04:28:53.436Z,58.80
2023-05-08T04:31:21.939Z,58.80
2023-05-08T04:33:51.087Z,58.80
2023-05-08T04:36:19.154Z,58.80
2023-05-08T04:38:47.167Z,58.70
2023-05-08T04:41:16.018Z,58.80
2023-05-08T04:43:46.047Z,58.80
2023-05-08T04:46:14.452Z,58.70
2023-05-08T04:48:42.354Z,58.70
2023-05-08T04:51:10.386Z,58.70
2023-05-08T04:53:38.298Z,58.70
2023-05-08T04:56:07.286Z,58.80
2023-05-08T04:58:36.003Z,58.90
2023-05-08T05:01:06.114Z,58.90
2023-05-08T05:03:34.944Z,58.90
2023-05-08T05:06:03.176Z,58.80
2023-05-08T05:08:31.282Z,58.80
2023-05-08T05:11:00.192Z,58.90
2023-05-08T05:13:29.357Z,58.80
2023-05-08T05:16:00.256Z,58.80
2023-05-08T05:18:29.793Z,58.80
2023-05-08T05:20:59.536Z,58.80
2023-05-08T05:23:29.503Z,58.90
2023-05-08T05:25:57.681Z,58.90
2023-05-08T05:28:26.107Z,59.00
2023-05-08T05:30:54.203Z,59.00
2023-05-08T05:33:22.585Z,59.00
2023-05-08T05:35:52.014Z,59.00
2023-05-08T05:38:20.611Z,59.00
2023-05-08T05:40:48.732Z,59.10
2023-05-08T05:43:16.738Z,59.10
2023-05-08T05:45:44.990Z,59.20
2023-05-08T05:48:13.081Z,59.30
2023-05-08T05:50:42.017Z,59.20
2023-05-08T05:53:11.561Z,59.30
2023-05-08T05:55:39.667Z,59.30
2023-05-08T05:58:08.007Z,59.30
2023-05-08T06:00:36.714Z,59.40
2023-05-08T06:03:05.682Z,59.30
2023-05-08T06:05:33.809Z,59.30
2023-05-08T06:08:01.930Z,59.30
2023-05-08T06:10:31.632Z,59.20
2023-05-08T06:12:59.762Z,59.20
2023-05-08T06:15:28.157Z,59.20
2023-05-08T06:17:56.462Z,59.20
2023-05-08T06:20:26.127Z,59.20
2023-05-08T06:22:54.574Z,59.20
2023-05-08T06:25:22.470Z,59.10
2023-05-08T06:27:51.717Z,59.10
2023-05-08T06:30:19.806Z,59.20
2023-05-08T06:32:47.685Z,59.30
2023-05-08T06:35:18.444Z,59.30
2023-05-08T06:37:46.504Z,59.30
2023-05-08T06:40:14.971Z,59.30
2023-05-08T06:42:43.121Z,59.20
2023-05-08T06:45:12.946Z,59.10
2023-05-08T06:47:41.502Z,59.10
2023-05-08T06:50:10.229Z,59.00
2023-05-08T06:52:38.373Z,58.90
2023-05-08T06:55:07.093Z,58.80
2023-05-08T06:57:35.194Z,58.80
2023-05-08T07:00:03.088Z,58.90
2023-05-08T07:02:32.483Z,59.00
2023-05-08T07:05:00.558Z,59.00
2023-05-08T07:07:28.477Z,59.20
2023-05-08T07:09:56.603Z,59.30
2023-05-08T07:12:24.567Z,59.20
2023-05-08T07:14:52.611Z,59.20
2023-05-08T07:17:20.524Z,59.10
2023-05-08T07:19:52.627Z,59.00
2023-05-08T07:22:21.065Z,58.90
2023-05-08T07:24:49.312Z,58.70
2023-05-08T07:27:17.250Z,58.50
2023-05-08T07:29:45.239Z,58.40
2023-05-08T07:32:13.645Z,58.30
2023-05-08T07:34:41.662Z,58.20
2023-05-08T07:37:12.104Z,58.10
2023-05-08T07:39:40.009Z,58.10
2023-05-08T07:42:08.182Z,58.00
2023-05-08T07:44:43.730Z,58.10
2023-05-08T07:47:21.954Z,58.00
2023-05-08T07:49:49.927Z,58.00
2023-05-08T07:52:19.403Z,58.10
2023-05-08T07:54:47.222Z,58.00
2023-05-08T07:57:15.257Z,58.00
2023-05-08T07:59:43.254Z,58.10
2023-05-08T08:02:11.265Z,58.10
2023-05-08T08:04:39.550Z,58.20
2023-05-08T08:07:07.524Z,58.30
2023-05-08T08:09:36.953Z,58.50
2023-05-08T08:12:04.929Z,58.60
2023-05-08T08:14:33.066Z,58.60
2023-05-08T08:17:01.227Z,58.60
2023-05-08T08:19:29.303Z,58.60
2023-05-08T08:21:57.342Z,58.50
2023-05-08T08:24:25.609Z,58.50
2023-05-08T08:26:55.382Z,58.50
2023-05-08T08:29:23.259Z,58.70
2023-05-08T08:31:51.416Z,58.80
2023-05-08T08:34:19.392Z,58.90
2023-05-08T08:36:47.385Z,59.00
2023-05-08T08:39:15.489Z,59.10
2023-05-08T08:41:43.521Z,59.20
2023-05-08T08:44:12.988Z,59.30
2023-05-08T08:46:47.098Z,59.50
2023-05-08T08:49:18.749Z,59.60
2023-05-08T08:51:51.356Z,59.70
2023-05-08T08:54:24.411Z,59.90
2023-05-08T08:56:53.508Z,60.30
2023-05-08T08:59:26.184Z,61.00
2023-05-08T09:01:58.007Z,61.20
2023-05-08T09:04:27.475Z,60.70
2023-05-08T09:06:55.676Z,60.00
2023-05-08T09:09:24.466Z,59.70
2023-05-08T09:11:53.442Z,59.40
2023-05-08T09:14:25.800Z,59.10
2023-05-08T09:16:54.881Z,58.90
2023-05-08T09:19:27.081Z,58.60
2023-05-08T09:22:00.017Z,58.50
2023-05-08T09:24:48.296Z,58.40
2023-05-08T09:27:22.560Z,58.30
2023-05-08T09:30:02.726Z,58.20
2023-05-08T09:32:31.164Z,58.00
2023-05-08T09:34:59.859Z,58.10
2023-05-08T09:37:28.996Z,58.10
2023-05-08T09:40:14.900Z,58.20
2023-05-08T09:42:42.942Z,58.10
2023-05-08T09:45:13.284Z,58.30
2023-05-08T09:47:49.320Z,58.30
2023-05-08T09:50:17.616Z,58.10
2023-05-08T09:52:48.388Z,58.20
2023-05-08T09:55:17.916Z,58.10
2023-05-08T09:57:57.940Z,58.20
2023-05-08T10:00:28.818Z,57.90
2023-05-08T10:02:59.331Z,57.90
2023-05-08T10:05:29.877Z,57.80
2023-05-08T10:07:58.342Z,57.70
2023-05-08T10:10:27.717Z,57.80
2023-05-08T10:12:57.279Z,57.90
2023-05-08T10:15:29.572Z,57.80
2023-05-08T10:18:05.038Z,57.70
2023-05-08T10:20:34.728Z,57.60
2023-05-08T10:23:04.370Z,57.70
2023-05-08T10:25:35.881Z,57.80
2023-05-08T10:28:12.015Z,57.80
2023-05-08T10:30:48.466Z,57.70
2023-05-08T10:33:21.069Z,57.70
2023-05-08T10:35:49.934Z,57.70
2023-05-08T10:38:18.236Z,57.60
2023-05-08T10:40:46.638Z,57.50
2023-05-08T10:43:15.550Z,57.30
2023-05-08T10:45:45.475Z,57.20
2023-05-08T10:48:25.335Z,57.00
2023-05-08T10:51:02.263Z,56.50
2023-05-08T10:53:39.833Z,56.50
2023-05-08T10:56:08.294Z,56.20
2023-05-08T10:58:39.119Z,56.40
2023-05-08T11:01:18.559Z,56.20
2023-05-08T11:03:50.480Z,56.00
2023-05-08T11:06:20.062Z,56.30
2023-05-08T11:08:50.579Z,56.10
2023-05-08T11:11:30.545Z,56.10
2023-05-08T11:14:13.077Z,55.70
2023-05-08T11:17:08.419Z,55.70
2023-05-08T11:19:38.261Z,55.70
2023-05-08T11:22:18.431Z,55.70
2023-05-08T11:24:53.123Z,55.10
2023-05-08T11:27:33.404Z,55.20
2023-05-08T11:30:20.938Z,54.80
2023-05-08T11:33:12.731Z,54.60
2023-05-08T11:35:55.251Z,54.70
2023-05-08T11:38:28.981Z,54.80
2023-05-08T11:41:02.941Z,54.80
2023-05-08T11:44:17.800Z,54.70
2023-05-08T11:46:50.898Z,54.70
2023-05-08T11:49:26.072Z,55.00
2023-05-08T11:52:00.146Z,55.50
2023-05-08T11:54:31.589Z,55.70
2023-05-08T11:56:59.852Z,55.80
2023-05-08T11:59:27.925Z,55.90
2023-05-08T12:02:07.850Z,55.80
2023-05-08T12:04:46.922Z,55.60
2023-05-08T12:07:16.023Z,55.40
2023-05-08T12:09:44.327Z,55.60
2023-05-08T12:12:12.161Z,55.60
2023-05-08T12:14:40.139Z,55.20
2023-05-08T12:17:08.180Z,55.10
2023-05-08T12:19:36.646Z,55.10
2023-05-08T12:22:05.923Z,55.20
2023-05-08T12:24:34.330Z,55.10
2023-05-08T12:27:02.279Z,55.40
2023-05-08T12:29:30.266Z,55.10
2023-05-08T12:31:58.400Z,55.20
2023-05-08T12:34:26.463Z,55.30
2023-05-08T12:37:04.906Z,55.40
2023-05-08T12:39:37.752Z,55.30
2023-05-08T12:42:06.010Z,55.50
2023-05-08T12:44:34.188Z,55.50
2023-05-08T12:47:02.152Z,55.20
2023-05-08T12:49:31.843Z,55.30
2023-05-08T12:52:06.601Z,55.10
2023-05-08T12:54:38.763Z,54.60
2023-05-08T12:57:12.000Z,54.80
2023-05-08T12:59:40.562Z,54.70
2023-05-08T13:02:17.967Z,54.90
2023-05-08T13:04:46.784Z,54.80
2023-05-08T13:07:16.434Z,55.00
2023-05-08T13:09:59.813Z,55.00
2023-05-08T13:12:27.977Z,54.80
2023-05-08T13:14:56.124Z,55.50
2023-05-08T13:17:24.159Z,54.90
2023-05-08T13:19:52.433Z,54.90
2023-05-08T13:22:23.090Z,55.00
2023-05-08T13:24:51.330Z,55.30
2023-05-08T13:27:19.361Z,54.80
2023-05-08T13:29:47.326Z,54.60
2023-05-08T13:32:15.455Z,54.80
2023-05-08T13:34:49.787Z,54.90
2023-05-08T13:37:20.871Z,54.70
2023-05-08T13:39:49.020Z,54.40
2023-05-08T13:42:16.835Z,54.20
2023-05-08T13:44:44.797Z,54.00
2023-05-08T13:47:12.692Z,53.80
2023-05-08T13:49:40.768Z,53.80
2023-05-08T13:52:08.688Z,53.70
2023-05-08T13:54:38.263Z,53.40
2023-05-08T13:57:06.515Z,53.20
2023-05-08T13:59:34.653Z,52.90
2023-05-08T14:02:02.721Z,52.50
2023-05-08T14:04:30.680Z,52.20
2023-05-08T14:06:58.667Z,52.20
2023-05-08T14:09:26.650Z,51.80
2023-05-08T14:11:56.018Z,51.90
2023-05-08T14:14:24.054Z,51.60
2023-05-08T14:16:51.981Z,51.50
2023-05-08T14:19:20.123Z,51.40
2023-05-08T14:21:48.335Z,51.30
2023-05-08T14:24:16.266Z,51.20
2023-05-08T14:26:45.014Z,51.10
2023-05-08T14:29:14.419Z,50.90
2023-05-08T14:31:42.628Z,50.80
2023-05-08T14:34:10.955Z,51.00
2023-05-08T14:36:39.127Z,50.90
2023-05-08T14:39:07.049Z,51.00
2023-05-08T14:41:35.558Z,51.00
2023-05-08T14:44:03.448Z,51.10
2023-05-08T14:46:33.011Z,51.20
2023-05-08T14:49:00.992Z,51.10
2023-05-08T14:51:29.394Z,51.10
2023-05-08T14:53:57.765Z,51.10
2023-05-08T14:56:26.173Z,51.00
2023-05-08T14:58:55.342Z,51.00
2023-05-08T15:01:23.663Z,50.90
2023-05-08T15:03:53.930Z,51.00
2023-05-08T15:06:23.122Z,51.00
2023-05-08T15:08:51.793Z,51.00
2023-05-08T15:11:20.106Z,51.00
2023-05-08T15:13:47.977Z,51.00
2023-05-08T15:16:16.119Z,51.10
2023-05-08T15:18:44.002Z,51.20
2023-05-08T15:21:13.406Z,51.10
2023-05-08T15:23:41.373Z,51.00
2023-05-08T15:26:09.718Z,51.10
2023-05-08T15:28:40.518Z,51.10
2023-05-08T15:31:08.808Z,51.00
2023-05-08T15:33:36.746Z,51.10
2023-05-08T15:36:05.338Z,51.10
2023-05-08T15:38:35.117Z,51.20
2023-05-08T15:41:03.032Z,51.20
2023-05-08T15:43:31.277Z,51.20
2023-05-08T15:45:59.240Z,51.30
2023-05-08T15:48:27.577Z,51.30
2023-05-08T15:50:55.591Z,51.20
2023-05-08T15:53:24.050Z,51.20
2023-05-08T15:55:54.037Z,51.10
2023-05-08T15:58:22.192Z,51.10
2023-05-08T16:00:50.224Z,51.10
2023-05-08T16:03:18.511Z,51.10
2023-05-08T16:05:46.609Z,51.10
2023-05-08T16:08:14.962Z,51.00
2023-05-08T16:10:43.328Z,51.00
2023-05-08T16:13:12.781Z,50.90
2023-05-08T16:15:40.788Z,50.80
2023-05-08T16:18:09.413Z,50.90
2023-05-08T16:20:37.518Z,50.70
2023-05-08T16:23:05.690Z,50.70
2023-05-08T16:25:33.734Z,50.80
2023-05-08T16:28:01.739Z,50.70
2023-05-08T16:30:31.084Z,50.70
2023-05-08T16:32:59.178Z,50.80
2023-05-08T16:35:27.162Z,50.80
2023-05-08T16:37:55.372Z,50.80
2023-05-08T16:40:23.327Z,50.80
2023-05-08T16:42:51.577Z,50.80
2023-05-08T16:45:19.385Z,50.70
2023-05-08T16:47:48.737Z,50.70
2023-05-08T16:50:16.738Z,50.70
2023-05-08T16:52:44.977Z,50.80
2023-05-08T16:55:13.228Z,50.70
2023-05-08T16:57:41.514Z,50.80
2023-05-08T17:00:10.387Z,50.80
2023-05-08T17:02:39.034Z,50.90
2023-05-08T17:05:09.179Z,50.90
2023-05-08T17:07:37.043Z,51.00
2023-05-08T17:10:05.602Z,51.00
2023-05-08T17:12:33.736Z,51.10
2023-05-08T17:15:02.172Z,51.00
2023-05-08T17:17:30.092Z,51.10
2023-05-08T17:19:58.051Z,51.20
2023-05-08T17:22:27.439Z,51.30
2023-05-08T17:24:55.634Z,51.40
2023-05-08T17:27:23.572Z,51.40
2023-05-08T17:29:51.685Z,51.40
2023-05-08T17:32:19.829Z,51.50
2023-05-08T17:34:47.752Z,51.60
2023-05-08T17:37:15.887Z,51.70
2023-05-08T17:39:45.265Z,51.70
2023-05-08T17:42:13.130Z,51.70
2023-05-08T17:44:41.010Z,51.60
2023-05-08T17:47:09.281Z,51.20
2023-05-08T17:49:37.175Z,51.00
2023-05-08T17:52:06.265Z,50.90
2023-05-08T17:54:34.587Z,50.90
2023-05-08T17:57:04.097Z,50.80
2023-05-08T17:59:32.315Z,50.70
2023-05-08T18:02:00.264Z,50.70
2023-05-08T18:04:28.459Z,50.80
2023-05-08T18:06:56.353Z,51.30
2023-05-08T18:09:24.363Z,51.10
2023-05-08T18:11:52.245Z,51.30
2023-05-08T18:14:21.587Z,51.40
2023-05-08T18:16:49.623Z,51.50
2023-05-08T18:19:17.461Z,51.60
2023-05-08T18:21:45.768Z,51.70
2023-05-08T18:24:13.914Z,51.80
2023-05-08T18:26:41.954Z,51.90
2023-05-08T18:29:09.984Z,52.00
2023-05-08T18:31:39.600Z,52.10
2023-05-08T18:34:07.828Z,52.30
2023-05-08T18:36:35.655Z,52.30
2023-05-08T18:39:04.435Z,52.40
2023-05-08T18:41:32.465Z,52.40
2023-05-08T18:44:03.144Z,52.60
2023-05-08T18:46:31.068Z,52.50
2023-05-08T18:49:00.492Z,52.50
2023-05-08T18:51:28.623Z,52.60
2023-05-08T18:53:57.127Z,52.60
2023-05-08T18:56:25.923Z,52.60
2023-05-08T18:58:54.772Z,52.70
2023-05-08T19:01:23.093Z,52.80
2023-05-08T19:03:51.321Z,52.90
2023-05-08T19:06:20.861Z,53.00
2023-05-08T19:08:48.748Z,53.10
2023-05-08T19:11:16.850Z,53.10
2023-05-08T19:13:45.037Z,53.10
2023-05-08T19:16:13.085Z,53.20
2023-05-08T19:18:41.031Z,53.20
2023-05-08T19:21:08.886Z,53.30
2023-05-08T19:23:38.317Z,53.40
2023-05-08T19:26:06.634Z,53.50
2023-05-08T19:28:34.734Z,53.40
2023-05-08T19:31:02.851Z,53.50
2023-05-08T19:33:30.840Z,53.60
2023-05-08T19:35:58.851Z,53.60
2023-05-08T19:38:26.758Z,53.60
2023-05-08T19:40:57.615Z,53.70
2023-05-08T19:43:26.404Z,53.90
2023-05-08T19:45:54.446Z,53.80
2023-05-08T19:48:22.552Z,53.90
2023-05-08T19:50:53.547Z,54.00
2023-05-08T19:53:22.908Z,54.10
2023-05-08T19:55:51.043Z,54.00
2023-05-08T19:58:20.606Z,54.20
2023-05-08T20:00:51.537Z,54.40
2023-05-08T20:03:20.372Z,54.40
2023-05-08T20:05:48.593Z,54.50
2023-05-08T20:08:16.574Z,54.50
2023-05-08T20:10:44.877Z,54.60
2023-05-08T20:13:12.818Z,54.70
2023-05-08T20:15:42.246Z,54.80
2023-05-08T20:18:10.207Z,54.80
2023-05-08T20:20:38.444Z,54.80
2023-05-08T20:23:06.356Z,54.80
2023-05-08T20:25:34.332Z,54.80
2023-05-08T20:28:02.199Z,54.90
2023-05-08T20:30:30.271Z,55.00
2023-05-08T20:33:04.805Z,55.10
2023-05-08T20:35:33.491Z,55.10
2023-05-08T20:38:01.447Z,55.20
2023-05-08T20:40:29.527Z,55.20
2023-05-08T20:42:57.396Z,55.20
2023-05-08T20:45:25.887Z,55.30
2023-05-08T20:47:54.083Z,55.40
2023-05-08T20:50:23.615Z,55.30
2023-05-08T20:52:51.773Z,55.50
2023-05-08T20:55:19.817Z,55.40
2023-05-08T20:57:47.861Z,55.50
2023-05-08T21:00:16.198Z,55.60
2023-05-08T21:02:44.519Z,55.60
2023-05-08T21:05:12.821Z,55.60
2023-05-08T21:07:42.677Z,55.70
2023-05-08T21:10:11.324Z,55.80
2023-05-08T21:12:39.879Z,55.80
2023-05-08T21:15:09.020Z,55.80
2023-05-08T21:17:37.021Z,55.90
2023-05-08T21:20:05.755Z,55.90
2023-05-08T21:22:34.675Z,55.90
2023-05-08T21:25:16.483Z,56.00
2023-05-08T21:27:44.755Z,56.00
2023-05-08T21:30:16.111Z,56.00
2023-05-08T21:32:45.032Z,56.10
2023-05-08T21:35:13.961Z,56.20
2023-05-08T21:37:42.115Z,56.20
2023-05-08T21:40:10.590Z,56.30
2023-05-08T21:42:40.733Z,56.30
2023-05-08T21:45:09.528Z,56.40
2023-05-08T21:47:37.409Z,56.40
2023-05-08T21:50:06.335Z,56.40
2023-05-08T21:52:34.291Z,56.40
2023-05-08T21:55:02.380Z,56.40
2023-05-08T21:57:30.358Z,56.60
2023-05-08T22:00:00.186Z,56.70
2023-05-08T22:02:28.199Z,56.80
2023-05-08T22:04:56.346Z,56.80
2023-05-08T22:07:24.225Z,56.80
2023-05-08T22:09:52.654Z,56.80
2023-05-08T22:12:20.660Z,56.80
2023-05-08T22:14:48.575Z,56.90
2023-05-08T22:17:18.058Z,56.90
2023-05-08T22:19:45.885Z,57.00
2023-05-08T22:22:13.845Z,57.00
2023-05-08T22:24:41.766Z,57.00
2023-05-08T22:27:09.906Z,57.00
2023-05-08T22:29:37.836Z,57.00
2023-05-08T22:32:08.393Z,57.00
2023-05-08T22:34:37.874Z,57.10
2023-05-08T22:37:06.251Z,57.10
2023-05-08T22:39:34.365Z,57.10
2023-05-08T22:42:02.457Z,57.10
2023-05-08T22:44:30.476Z,57.10
2023-05-08T22:46:59.340Z,57.70
2023-05-08T22:49:27.607Z,57.40
2023-05-08T22:51:56.906Z,57.50
2023-05-08T22:54:25.134Z,57.70
2023-05-08T22:56:53.271Z,57.70
2023-05-08T22:59:21.490Z,57.70
2023-05-08T23:01:49.338Z,57.80
2023-05-08T23:04:17.468Z,57.80
2023-05-08T23:06:45.480Z,57.80
2023-05-08T23:09:14.783Z,58.00
2023-05-08T23:11:42.815Z,58.10
2023-05-08T23:14:10.787Z,58.10
2023-05-08T23:16:38.719Z,58.10
2023-05-08T23:19:07.516Z,58.10
2023-05-08T23:21:35.422Z,58.20
2023-05-08T23:24:03.411Z,58.30
2023-05-08T23:26:32.791Z,58.40
2023-05-08T23:29:00.681Z,58.50
2023-05-08T23:31:29.006Z,58.60
2023-05-08T23:33:57.081Z,58.60
2023-05-08T23:36:25.019Z,58.70
2023-05-08T23:38:53.085Z,58.80
2023-05-08T23:41:20.947Z,58.80
2023-05-08T23:43:50.349Z,58.90
2023-05-08T23:46:18.391Z,59.10
2023-05-08T23:48:46.415Z,59.00
2023-05-08T23:51:14.275Z,59.00
2023-05-08T23:53:42.349Z,59.00
2023-05-08T23:56:10.702Z,59.00
2023-05-08T23:58:38.617Z,58.90
